map of PEN home
PEN - Airport
Location
City:  George Town, Penang (Pahang), Malaysia
Name:Penang International Airport
Old (Alt.):Bayan Lepas International Airport
ICAO:WMKP
IATA:PEN

Details
Type:Airport (Aerodrome, Airfield)
Use:Public/Civil, International (customs port of entry)
Latitude:517'50"N (5.297139)
Longitude:10016'37"E (100.276864)
Datum:WGS 1984
Elevation:11 ft (3 m)
Variation:0.19W (WMM2015 magnetic declination)
0.01 annual change
Runways:1
Longest:10997 × 150 ft (3352 × 45.5 m), paved

Time
Time Zone:UTC+8
Local Time:

Weather
METAR:WMKP 162200Z 04007KT 010V070 8000 FEW025 SCT140 BKN270 27/22 Q1008 NOSIG
TAF:WMKP 161700Z 1618/1718 03005KT 8000 FEW025 SCT140 BKN270
TEMPO 1622/1702 7000 -TSRA FEW017CB
TEMPO 1706/1709 23005KT

Related Locations
Nearby:
Farthest:SPAB: 12431 mi / 20006 km
Huancabamba, PIU, PE

Find:

   beyond  
but within

Other Information
Maps:
NOTAMs:
Links:
Sources:

  
  • flag of Malaysia
  • flag of Penang (Pahang)
  

Sectional Chart

Flight Planning
at skyvector.com

Satellite Image

Google Maps Satellite view

 

Copyright © 2004-2019 Karl L. Swartz. All rights reserved.
The Great Circle Mapper name and logo are trademarks of the Great Circle Mapper.
All other trademarks mentioned herein belong to their respective owners.
Please see credits for attibutions and further copyright information.

  Follow gcmap on Facebook Follow gcmap on Twitter Follow gcmap on Google+ GCmap on LinkedIn

hCard Microformat

Geo Microformat